Concordia, Kansas
Current Conditions -  °F | °C
As of 7:55 PM on Thursday 18 Dec 2014 (Local Time) from KCNK Reporting Station
Haze Haze  
Wind Chill: 22°   Ceiling: 3400
Heat Index: 28°   Visibility: 6mi
Dew Point: 27°   Wind: 6mph
Humidity: 96%   Direction: 180°S
Pressure: 30.21"   Gusts: NA
Location:  39.57°N, 97.66°W
Report Text: KCNK 190155Z AUTO 18005KT 6SM BR OVC034 M02/M03 A3021 RMK AO2 SLP246 T10221028
Loading
Personal Weather Stations






























Interactive Weather Map New forecast layout! Learn more

10-Day Weather Forecast

Advertisements
Track Severe Weather on mobile